Flight Track Log - Related Links

Times and Time Zones

All times are in EST time to prevent confusion due to time zone crossing. See the AAY893 flight status page for this flight to view local times or setup timezone preferences in your user account.

Time Position Orientation Groundspeed Altitude Reporting Facility
EST Latitude Longitude Course Direction KTS MPH feet Rate Location/Type
Sun 07:14:15 PM 41.2433 -80.6422 97° East 182 209 3,100  Level Cleveland Center
Sun 07:15:16 PM 41.2353 -80.5531 97° East 235 270 4,600 1,756 Climbing Cleveland Center
Sun 07:16:18 PM 41.2006 -80.4592 116° Southeast 290 334 6,700 1,984 Climbing Cleveland Center
Sun 07:17:20 PM 41.1269 -80.4078 152° Southeast 294 338 8,700 1,984 Climbing Cleveland Center
Sun 07:18:22 PM 41.0486 -80.3583 155° Southeast 307 353 10,800 1,694 Climbing Cleveland Center
Sun 07:19:24 PM 40.9575 -80.2997 154° Southeast 358 412 12,200 1,854 Climbing Cleveland Center
Sun 07:20:25 PM 40.8558 -80.2336 154° Southeast 396 456 14,600 2,293 Climbing Cleveland Center
Sun 07:21:27 PM 40.7508 -80.2053 168° South 398 458 16,900 2,419 Climbing Cleveland Center
Sun 07:22:29 PM 40.6197 -80.1961 177° South 396 456 19,600 2,274 Climbing Cleveland Center
Sun 07:23:31 PM 40.5069 -80.1903 178° South 403 464 21,600 1,805 Climbing Cleveland Center
Sun 07:24:32 PM 40.3911 -80.1811 177° South 413 475 23,300 1,561 Climbing Cleveland Center
Sun 07:25:34 PM 40.2814 -80.1750 178° South 426 490 24,800 1,548 Climbing Cleveland Center
Sun 07:26:36 PM 40.1361 -80.1653 177° South 436 502 26,500 1,742 Climbing Cleveland Center
Sun 07:27:38 PM 40.0169 -80.1558 177° South 435 501 28,400 1,854 Climbing Cleveland Center
Sun 07:28:39 PM 39.9017 -80.1492 177° South 422 486 30,300 1,415 Climbing Cleveland Center
Sun 07:29:41 PM 39.7903 -80.1406 177° South 409 471 31,300 968 Climbing Cleveland Center
Sun 07:30:43 PM 39.6775 -80.1331 177° South 406 467 32,300 823 Climbing Cleveland Center
Sun 07:31:45 PM 39.5650 -80.1256 177° South 406 467 33,000 420 Climbing Cleveland Center
Sun 07:32:23 PM 39.4806 -80.1222 178° South 402 463 33,000  Level Washington Center
Sun 07:33:25 PM 39.3683 -80.1153 177° South 402 463 33,000  Level Washington Center
Sun 07:34:25 PM 39.2539 -80.1081 177° South 407 468 33,000  Level Washington Center
Sun 07:35:23 PM 39.1417 -80.1011 177° South 407 468 33,000  Level Washington Center
Sun 07:36:23 PM 39.0500 -80.0928 176° South 407 468 33,000  Level Washington Center
Sun 07:37:23 PM 38.9144 -80.0953 181° South 407 468 33,000  Level Washington Center
Sun 07:38:24 PM 38.8089 -80.1286 194° South 397 457 33,000  Level Washington Center
Sun 07:39:25 PM 38.7097 -80.1653 196° South 386 444 33,000  Level Washington Center
Sun 07:40:23 PM 38.6039 -80.2011 195° South 386 444 33,000  Level Washington Center
Sun 07:41:24 PM 38.5111 -80.2325 195° South 386 444 33,000  Level Washington Center
Sun 07:42:24 PM 38.4053 -80.2708 196° South 386 444 33,000 250 Level Washington Center
Sun 07:43:24 PM 38.3039 -80.3042 194° South 386 444 33,500 446 Climbing Washington Center
Sun 07:44:25 PM 38.2003 -80.3428 196° South 386 444 33,900 252 Climbing Washington Center
Sun 07:45:23 PM 38.0864 -80.3725 192° South 386 444 34,000 50 Climbing Washington Center
Sun 07:46:24 PM 37.9814 -80.3919 188° South 381 438 34,000  Level Washington Center
Sun 07:47:25 PM 37.8722 -80.4086 187° South 387 445 34,000  Level Washington Center
Sun 07:48:25 PM 37.7756 -80.4261 188° South 392 451 34,000  Level Washington Center
Sun 07:49:23 PM 37.6703 -80.4458 188° South 391 450 34,000  Level Washington Center
Sun 07:51:18 PM 37.4661 -80.4781 187° South 392 451 34,000  Level Atlanta Center
Sun 07:52:18 PM 37.3603 -80.4933 187° South 387 445 34,000  Level Atlanta Center
Sun 07:53:18 PM 37.2503 -80.5111 187° South 387 445 34,000  Level Atlanta Center
Sun 07:54:18 PM 37.1444 -80.5289 188° South 387 445 34,000  Level Atlanta Center
Sun 07:55:18 PM 37.0242 -80.5472 187° South 387 445 34,000  Level Atlanta Center
Sun 07:56:18 PM 36.9142 -80.5653 187° South 387 445 34,000  Level Atlanta Center
Sun 07:57:18 PM 36.8042 -80.5831 187° South 393 452 34,000  Level Atlanta Center
Sun 07:58:18 PM 36.6983 -80.6006 188° South 393 452 34,000  Level Atlanta Center
Sun 07:59:18 PM 36.5928 -80.6308 193° South 388 447 34,000  Level Atlanta Center
Sun 08:00:18 PM 36.4875 -80.6689 196° South 388 447 34,000  Level Atlanta Center
Sun 08:01:18 PM 36.3800 -80.7017 194° South 393 452 34,000  Level Atlanta Center
Sun 08:02:18 PM 36.2767 -80.7397 197° South 393 452 34,000  Level Atlanta Center
Sun 08:03:18 PM 36.1733 -80.7747 195° South 393 452 34,000  Level Atlanta Center
Sun 08:04:18 PM 36.0658 -80.8072 194° South 393 452 34,000  Level Atlanta Center
Sun 08:05:18 PM 35.9603 -80.8447 196° South 393 452 34,000  Level Atlanta Center
Sun 08:06:18 PM 35.8569 -80.8797 195° South 393 452 34,000  Level Atlanta Center
Sun 08:07:18 PM 35.7494 -80.9172 196° South 393 452 34,000  Level Atlanta Center
Sun 08:08:18 PM 35.6522 -80.9489 195° South 393 452 34,000  Level Atlanta Center
Sun 08:09:18 PM 35.5447 -80.9836 195° South 393 452 34,000  Level Atlanta Center
Sun 08:10:18 PM 35.4328 -81.0183 194° South 399 459 34,000  Level Atlanta Center
Sun 08:11:18 PM 35.3272 -81.0553 196° South 399 459 34,000  Level Atlanta Center
Sun 08:12:18 PM 35.2197 -81.0922 196° South 399 459 34,000  Level Atlanta Center
Sun 08:13:18 PM 35.1142 -81.1289 196° South 394 453 34,000  Level Atlanta Center
Sun 08:16:29 PM 34.7664 -81.2397 195° South 402 463 34,000  Level Jacksonville Center
Sun 08:17:29 PM 34.6586 -81.2772 196° South 402 463 34,000  Level Jacksonville Center
Sun 08:18:30 PM 34.5483 -81.3119 195° South 402 463 34,000  Level Jacksonville Center
Sun 08:19:30 PM 34.4444 -81.3442 194° South 402 463 34,000  Level Jacksonville Center
Sun 08:20:30 PM 34.3386 -81.3786 195° South 397 457 34,000  Level Jacksonville Center
Sun 08:21:30 PM 34.2303 -81.4108 194° South 397 457 34,000  Level Jacksonville Center
Sun 08:22:30 PM 34.1244 -81.4478 196° South 397 457 34,000  Level Jacksonville Center
Sun 08:23:29 PM 34.0142 -81.4819 194° South 397 457 34,000 -50 Level Jacksonville Center
Sun 08:24:30 PM 33.8894 -81.5067 189° South 407 468 33,900  Descending Jacksonville Center
Sun 08:25:30 PM 33.7894 -81.5256 189° South 412 474 34,000 50 Climbing Jacksonville Center
Sun 08:26:29 PM 33.6769 -81.5497 190° South 412 474 34,000  Level Jacksonville Center
Sun 08:27:30 PM 33.5644 -81.5714 189° South 412 474 34,000  Level Jacksonville Center
Sun 08:28:29 PM 33.4542 -81.5931 189° South 412 474 34,000  Level Jacksonville Center
Sun 08:29:29 PM 33.3417 -81.6169 190° South 412 474 34,000  Level Jacksonville Center
Sun 08:30:30 PM 33.2311 -81.6411 190° South 412 474 34,000 -50 Level Jacksonville Center
Sun 08:31:29 PM 33.1083 -81.6675 190° South 412 474 33,900  Descending Jacksonville Center
Sun 08:32:29 PM 33.0083 -81.6861 189° South 412 474 34,000 50 Climbing Jacksonville Center
Sun 08:33:29 PM 32.8978 -81.7075 189° South 412 474 34,000  Level Jacksonville Center
Sun 08:34:29 PM 32.7853 -81.7311 190° South 412 474 34,000  Level Jacksonville Center
Sun 08:35:29 PM 32.6769 -81.7547 190° South 407 468 34,000  Level Jacksonville Center
Sun 08:36:29 PM 32.5542 -81.7786 189° South 407 468 34,000  Level Jacksonville Center
Sun 08:37:29 PM 32.4519 -81.7994 190° South 406 467 34,000  Level Jacksonville Center
Sun 08:38:29 PM 32.3311 -81.8281 191° South 412 474 34,000  Level Jacksonville Center
Sun 08:39:29 PM 32.2186 -81.8489 189° South 412 474 34,000  Level Jacksonville Center
Sun 08:40:29 PM 32.1186 -81.8697 190° South 412 474 34,000  Level Jacksonville Center
Sun 08:41:29 PM 31.9956 -81.8906 188° South 407 468 34,000  Level Jacksonville Center
Sun 08:42:30 PM 31.8872 -81.9139 190° South 405 466 34,000  Level Jacksonville Center
Sun 08:43:29 PM 31.7747 -81.9369 190° South 412 474 34,000  Level Jacksonville Center
Sun 08:44:29 PM 31.6661 -81.9578 189° South 407 468 34,000  Level Jacksonville Center
Sun 08:45:29 PM 31.5639 -81.9783 190° South 412 474 34,000  Level Jacksonville Center
Sun 08:46:29 PM 31.4411 -82.0014 189° South 412 474 34,000 -50 Level Jacksonville Center
Sun 08:47:29 PM 31.3283 -82.0317 193° South 412 474 33,900 -50 Descending Jacksonville Center
Sun 08:48:29 PM 31.2178 -82.0497 188° South 412 474 33,900  Level Jacksonville Center
Sun 08:49:29 PM 31.1094 -82.0675 188° South 407 468 33,900  Level Jacksonville Center
Sun 08:50:29 PM 31.0072 -82.0878 190° South 407 468 33,900  Level Jacksonville Center
Sun 08:51:29 PM 30.8989 -82.1081 189° South 412 474 33,900  Level Jacksonville Center
Sun 08:52:29 PM 30.7903 -82.1308 190° South 407 468 33,900  Level Jacksonville Center
Sun 08:53:29 PM 30.6819 -82.1511 189° South 407 468 33,900  Level Jacksonville Center
Sun 08:54:29 PM 30.5736 -82.1711 189° South 407 468 33,900  Level Jacksonville Center
Sun 08:55:29 PM 30.4525 -82.1914 188° South 407 468 33,900  Level Jacksonville Center
Sun 08:56:29 PM 30.3400 -82.2139 190° South 413 475 33,900  Level Jacksonville Center
Sun 08:57:29 PM 30.2294 -82.2339 189° South 413 475 33,900  Level Jacksonville Center
Sun 08:58:29 PM 30.1167 -82.2561 190° South 411 473 33,900  Level Jacksonville Center
Sun 08:59:29 PM 30.0167 -82.2786 191° South 411 473 33,900 -550 Level Jacksonville Center
Sun 09:00:29 PM 29.8997 -82.3031 190° South 411 473 32,800 -1,650 Descending Jacksonville Center
Sun 09:01:29 PM 29.7872 -82.3206 188° South 411 473 30,600 -2,150 Descending Jacksonville Center
Sun 09:02:29 PM 29.6767 -82.3428 190° South 411 473 28,500 -2,200 Descending Jacksonville Center
Sun 09:03:29 PM 29.5597 -82.3553 185° South 411 473 26,200 -2,250 Descending Jacksonville Center
Sun 09:04:29 PM 29.4364 -82.3417 175° South 422 486 24,000 -2,100 Descending Jacksonville Center
Sun 09:05:29 PM 29.3175 -82.3281 174° South 435 501 22,000 -2,000 Descending Jacksonville Center
Sun 09:06:29 PM 29.2006 -82.3122 173° South 441 507 20,000 -2,000 Descending Jacksonville Center
Sun 09:07:29 PM 29.0878 -82.3008 175° South 428 493 18,000 -1,950 Descending Jacksonville Center
Sun 09:08:29 PM 28.9750 -82.2872 174° South 416 479 16,100 -2,050 Descending Jacksonville Center
Sun 09:09:29 PM 28.8539 -82.2714 173° South 410 472 13,900 -1,231 Descending Jacksonville Center
Sun 09:11:05 PM 28.7333 -82.3167 198° South 306 352 12,900 -692 Descending Tampa TRACON
Sun 09:12:05 PM 28.6667 -82.3667 213° Southwest 266 306 12,100 -843 Descending Tampa TRACON
Sun 09:13:06 PM 28.6167 -82.4333 229° Southwest 266 306 11,200 -1,091 Descending Tampa TRACON
Sun 09:14:06 PM 28.5500 -82.4833 213° Southwest 265 305 9,900 -1,500 Descending Tampa TRACON
Sun 09:15:06 PM 28.5000 -82.5333 221° Southwest 253 291 8,200 -1,650 Descending Tampa TRACON
Sun 09:16:06 PM 28.4500 -82.5833 221° Southwest 248 285 6,600 -1,100 Descending Tampa TRACON
Sun 09:17:06 PM 28.3833 -82.6333 213° Southwest 248 285 6,000 -550 Descending Tampa TRACON
Sun 09:18:06 PM 28.3333 -82.6667 210° Southwest 244 281 5,500 -1,100 Descending Tampa TRACON
Sun 09:19:06 PM 28.2667 -82.7000 204° Southwest 250 288 3,800 -1,250 Descending Tampa TRACON
Sun 09:20:06 PM 28.2000 -82.7333 204° Southwest 245 282 3,000 -400 Descending Tampa TRACON
Sun 09:21:06 PM 28.1333 -82.7333 180° South 243 280 3,000 -250 Level Tampa TRACON
Sun 09:22:06 PM 28.0833 -82.7167 164° South 188 216 2,500 -450 Descending Tampa TRACON
Sun 09:23:06 PM 28.0333 -82.7167 180° South 143 165 2,100 -500 Descending Tampa TRACON
Sun 09:24:06 PM 28.0000 -82.7000 156° South 136 157 1,500 -600 Descending Tampa TRACON
Sun 09:25:06 PM 27.9667 -82.7000 180° South 127 146 900 -600 Descending Tampa TRACON

Login

Don't have an account? Register now (free) for customized features, flight alerts, and more!